Hauptseite
METAR-TAF:

METAR-TAF

Flughäfen :

Flughafen Nadi

Nadi, Fidschi

Breite: 17-45S, Länge: 177-27E, Höhe: 13 m

Beobachtung

Neuester Wetterbericht von vor 10 Minuten, um 06:00 UTC
Wind 4 kt aus Nord
Temperatur 25°C
Luftfeuchtigkeit 74%
Luftdruck 1014 hPa
Sichtweite 10 km oder mehr
Leicht bewölkt in der Höhe von 2800 ft

METAR: NFFN 100600Z 36004KT 9999 FEW028 25/20 Q1014 NOSIG

Zeit: 18:10 (06:10 UTC)

Prognose

Neuester Wetterbericht von vor 1 Stunde und 1 Minuten, um 05:09 UTC
Gültige Prognose vom 10 um 06 UTC bis 11 um 06 UTC
Wind 10 kt aus West/Nordwest
Sichtweite 10 km oder mehr
Leicht bewölkt in der Höhe von 3000 ft
Übergehend zu
vom 10 um 07 UTC bis 10 um 09 UTC
Wind 6 kt aus Ost/Südost
Übergehend zu
vom 10 um 22 UTC bis 10 um 24 UTC
Wind 10 kt aus West/Nordwest

TAF: NFFN 100509Z 1006/1106 30010KT 9999 FEW030 BECMG 1007/1009 12006KT BECMG 1022/1024 30010KT

Wetterbeobachtungen und Prognosen von mehr als 4000 Flughäfen (METAR und TAF Bericht).

Die verfügbaren Stationen werden durch gelbe und rote Markierungen auf der Karte dargestellt.

Führen Sie die Maus auf sie, um den Namen der Station zu sehen.

Darauf klicken, um die Beobachtung von Wetterbeobachtungen und Prognosen zu sehen.

Um die Karte zu ändern : klicken Sie auf den grünen Tasten mit einem schwarzen Kreuz Zum Vergrößern, auf den grünen Button mit einem Gedankenstrich zu verkleinern, oder auf die grünen Pfeile für benachbarte Karten.


METAR-TAF: